createdAt,value
2019-03-22T00:01:47.092Z,25.90
2019-03-22T00:04:17.063Z,22.00
2019-03-22T00:06:46.963Z,20.37
2019-03-22T00:09:16.890Z,22.63
2019-03-22T00:11:46.878Z,35.03
2019-03-22T00:14:17.064Z,23.37
2019-03-22T00:16:47.003Z,21.60
2019-03-22T00:19:16.926Z,20.73
2019-03-22T00:21:46.892Z,20.47
2019-03-22T00:24:16.844Z,21.63
2019-03-22T00:26:46.766Z,16.77
2019-03-22T00:29:16.711Z,20.80
2019-03-22T00:31:46.621Z,17.17
2019-03-22T00:34:16.543Z,17.87
2019-03-22T00:36:46.384Z,31.70
2019-03-22T00:39:16.343Z,23.20
2019-03-22T00:41:46.259Z,23.07
2019-03-22T00:44:16.244Z,20.93
2019-03-22T00:46:46.138Z,21.67
2019-03-22T00:49:16.048Z,19.20
2019-03-22T00:51:46.023Z,17.60
2019-03-22T00:54:15.975Z,19.93
2019-03-22T00:56:46.013Z,18.53
2019-03-22T00:59:15.915Z,23.27
2019-03-22T01:01:45.842Z,18.67
2019-03-22T01:04:15.779Z,23.47
2019-03-22T01:06:45.683Z,19.33
2019-03-22T01:09:15.634Z,21.17
2019-03-22T01:11:45.536Z,21.43
2019-03-22T01:14:15.554Z,19.03
2019-03-22T01:16:45.485Z,21.33
2019-03-22T01:19:15.411Z,19.53
2019-03-22T01:21:45.780Z,17.30
2019-03-22T01:24:15.679Z,20.93
2019-03-22T01:26:45.641Z,24.83
2019-03-22T01:29:15.579Z,23.33
2019-03-22T01:31:45.510Z,22.27
2019-03-22T01:34:15.424Z,21.53
2019-03-22T01:36:45.335Z,19.90
2019-03-22T01:39:15.267Z,20.73
2019-03-22T01:41:45.175Z,21.13
2019-03-22T01:44:15.111Z,21.90
2019-03-22T01:46:45.015Z,19.00
2019-03-22T01:49:14.974Z,20.47
2019-03-22T01:51:44.892Z,22.57
2019-03-22T01:54:14.845Z,20.27
2019-03-22T01:56:44.829Z,20.13
2019-03-22T01:59:14.939Z,25.03
2019-03-22T02:01:44.826Z,18.60
2019-03-22T02:04:14.728Z,19.70
2019-03-22T02:06:44.676Z,27.47
2019-03-22T02:09:14.586Z,21.07
2019-03-22T02:11:44.547Z,24.70
2019-03-22T02:14:14.467Z,21.33
2019-03-22T02:16:44.380Z,19.63
2019-03-22T02:19:14.312Z,20.03
2019-03-22T02:21:45.453Z,24.23
2019-03-22T02:24:15.405Z,20.73
2019-03-22T02:26:45.314Z,19.30
2019-03-22T02:29:15.234Z,17.90
2019-03-22T02:31:45.154Z,20.27
2019-03-22T02:34:15.105Z,21.57
2019-03-22T02:36:44.999Z,24.67
2019-03-22T02:39:15.023Z,19.43
2019-03-22T02:41:44.955Z,25.03
2019-03-22T02:44:14.933Z,20.50
2019-03-22T02:46:44.848Z,18.20
2019-03-22T02:49:14.762Z,19.97
2019-03-22T02:51:44.701Z,17.40
2019-03-22T02:54:14.633Z,17.67
2019-03-22T02:56:44.584Z,33.43
2019-03-22T02:59:14.493Z,25.87
2019-03-22T03:01:44.459Z,43.80
2019-03-22T03:04:14.372Z,46.20
2019-03-22T03:06:44.358Z,49.70
2019-03-22T03:09:14.300Z,34.33
2019-03-22T03:11:44.226Z,28.13
2019-03-22T03:14:14.157Z,25.47
2019-03-22T03:16:44.112Z,25.30
2019-03-22T03:19:14.040Z,26.33
2019-03-22T03:21:43.943Z,23.57
2019-03-22T03:24:13.890Z,25.50
2019-03-22T03:26:43.800Z,39.83
2019-03-22T03:29:13.748Z,29.30
2019-03-22T03:31:43.682Z,24.67
2019-03-22T03:34:13.611Z,34.97
2019-03-22T03:36:43.548Z,41.10
2019-03-22T03:39:13.463Z,46.97
2019-03-22T03:41:43.414Z,37.27
2019-03-22T03:44:13.335Z,44.53
2019-03-22T03:46:43.269Z,44.20
2019-03-22T03:49:13.167Z,43.37
2019-03-22T03:51:43.096Z,33.03
2019-03-22T03:54:13.020Z,44.50
2019-03-22T03:56:43.033Z,42.00
2019-03-22T03:59:12.951Z,45.37
2019-03-22T04:01:42.898Z,41.33
2019-03-22T04:04:12.814Z,37.27
2019-03-22T04:06:42.762Z,33.67
2019-03-22T04:09:12.680Z,28.50
2019-03-22T04:11:42.566Z,30.60
2019-03-22T04:14:12.512Z,26.87
2019-03-22T04:16:42.481Z,24.57
2019-03-22T04:19:12.433Z,22.03
2019-03-22T04:21:42.356Z,23.33
2019-03-22T04:24:12.291Z,27.23
2019-03-22T04:26:42.222Z,29.17
2019-03-22T04:29:12.160Z,25.43
2019-03-22T04:31:42.076Z,29.27
2019-03-22T04:34:12.246Z,27.90
2019-03-22T04:36:42.148Z,27.70
2019-03-22T04:39:12.096Z,31.40
2019-03-22T04:41:41.995Z,31.93
2019-03-22T04:44:11.939Z,32.53
2019-03-22T04:46:43.881Z,31.93
2019-03-22T04:49:14.883Z,33.87
2019-03-22T04:51:45.202Z,35.47
2019-03-22T04:54:17.734Z,37.07
2019-03-22T04:56:49.900Z,31.50
2019-03-22T04:59:20.371Z,32.00
2019-03-22T05:01:53.020Z,27.40
2019-03-22T05:04:25.072Z,68.03
2019-03-22T05:06:55.458Z,47.60
2019-03-22T05:09:27.618Z,30.57
2019-03-22T05:11:59.367Z,29.13
2019-03-22T05:14:31.760Z,28.97
2019-03-22T05:17:01.763Z,25.03
2019-03-22T05:19:35.096Z,27.27
2019-03-22T05:22:07.007Z,25.23
2019-03-22T05:24:37.824Z,30.57
2019-03-22T05:27:09.039Z,29.00
2019-03-22T05:29:39.477Z,26.23
2019-03-22T05:32:11.045Z,31.07
2019-03-22T05:34:40.979Z,31.37
2019-03-22T05:37:10.943Z,35.03
2019-03-22T05:39:40.887Z,30.13
2019-03-22T05:42:10.815Z,26.63
2019-03-22T05:44:40.743Z,30.97
2019-03-22T05:47:10.651Z,25.90
2019-03-22T05:49:40.567Z,25.10
2019-03-22T05:52:10.503Z,34.43
2019-03-22T05:54:40.414Z,32.43
2019-03-22T05:57:13.721Z,22.50
2019-03-22T05:59:43.091Z,26.60
2019-03-22T06:02:13.134Z,32.80
2019-03-22T06:04:43.044Z,33.93
2019-03-22T06:07:12.954Z,26.70
2019-03-22T06:09:42.901Z,28.73
2019-03-22T06:12:12.807Z,24.77
2019-03-22T06:14:42.776Z,29.70
2019-03-22T06:17:12.715Z,35.30
2019-03-22T06:19:42.691Z,32.20
2019-03-22T06:22:12.604Z,30.40
2019-03-22T06:24:42.547Z,27.97
2019-03-22T06:27:12.461Z,34.80
2019-03-22T06:29:53.354Z,26.43
2019-03-22T06:32:13.978Z,24.03
2019-03-22T06:34:43.871Z,33.07
2019-03-22T06:37:13.757Z,29.23
2019-03-22T06:39:43.663Z,28.67
2019-03-22T06:42:13.594Z,34.47
2019-03-22T06:44:43.548Z,31.00
2019-03-22T06:47:13.479Z,34.83
2019-03-22T06:49:43.392Z,26.40
2019-03-22T06:52:13.295Z,26.93
2019-03-22T06:54:43.252Z,41.27
2019-03-22T06:57:13.182Z,38.47
2019-03-22T06:59:43.203Z,24.60
2019-03-22T07:02:13.128Z,25.00
2019-03-22T07:04:43.057Z,22.30
2019-03-22T07:07:13.036Z,26.33
2019-03-22T07:09:42.965Z,23.87
2019-03-22T07:12:12.911Z,24.57
2019-03-22T07:14:42.808Z,24.37
2019-03-22T07:17:12.751Z,29.30
2019-03-22T07:19:42.673Z,22.67
2019-03-22T07:22:12.634Z,25.03
2019-03-22T07:24:42.547Z,20.23
2019-03-22T07:27:12.507Z,20.10
2019-03-22T07:29:42.456Z,19.20
2019-03-22T07:32:12.382Z,17.00
2019-03-22T07:34:42.319Z,20.37
2019-03-22T07:37:12.281Z,20.87
2019-03-22T07:39:42.186Z,20.97
2019-03-22T07:42:12.129Z,18.83
2019-03-22T07:44:42.043Z,16.83
2019-03-22T07:47:11.955Z,18.13
2019-03-22T07:49:41.897Z,15.23
2019-03-22T07:52:11.847Z,18.07
2019-03-22T07:54:41.784Z,27.07
2019-03-22T07:57:11.755Z,26.97
2019-03-22T07:59:44.172Z,22.77
2019-03-22T08:02:14.047Z,21.17
2019-03-22T08:04:43.968Z,21.90
2019-03-22T08:07:15.407Z,21.70
2019-03-22T08:09:45.430Z,20.47
2019-03-22T08:12:15.383Z,20.20
2019-03-22T08:14:45.280Z,18.57
2019-03-22T08:17:15.212Z,19.20
2019-03-22T08:19:45.145Z,19.23
2019-03-22T08:22:15.083Z,22.73
2019-03-22T08:24:44.991Z,17.23
2019-03-22T08:27:14.926Z,19.20
2019-03-22T08:29:44.842Z,21.93
2019-03-22T08:32:14.872Z,15.83
2019-03-22T08:34:47.562Z,18.00
2019-03-22T08:37:16.370Z,20.77
2019-03-22T08:39:46.315Z,16.10
2019-03-22T08:42:16.212Z,20.63
2019-03-22T08:44:46.143Z,17.77
2019-03-22T08:47:16.083Z,24.60
2019-03-22T08:49:46.265Z,18.23
2019-03-22T08:52:16.284Z,21.67
2019-03-22T08:54:46.209Z,17.33
2019-03-22T08:57:16.219Z,18.17
2019-03-22T08:59:46.219Z,16.60
2019-03-22T09:02:16.183Z,16.90
2019-03-22T09:04:46.105Z,19.23
2019-03-22T09:07:16.143Z,21.97
2019-03-22T09:09:47.525Z,22.10
2019-03-22T09:12:17.459Z,19.73
2019-03-22T09:14:47.399Z,19.33
2019-03-22T09:17:17.311Z,19.50
2019-03-22T09:19:47.319Z,16.27
2019-03-22T09:22:17.262Z,15.17
2019-03-22T09:24:47.194Z,17.10
2019-03-22T09:27:17.142Z,16.00
2019-03-22T09:29:47.458Z,16.67
2019-03-22T09:32:17.547Z,20.83
2019-03-22T09:34:47.452Z,16.50
2019-03-22T09:37:17.400Z,21.77
2019-03-22T09:39:47.333Z,15.70
2019-03-22T09:42:17.255Z,17.57
2019-03-22T09:44:47.166Z,15.47
2019-03-22T09:47:17.176Z,19.35
2019-03-22T09:49:47.155Z,13.97
2019-03-22T09:52:17.132Z,17.90
2019-03-22T09:54:47.045Z,19.00
2019-03-22T09:57:16.994Z,17.30
2019-03-22T09:59:46.911Z,18.87
2019-03-22T10:02:16.834Z,18.47
2019-03-22T10:04:46.755Z,16.17
2019-03-22T10:07:16.670Z,16.33
2019-03-22T10:09:46.615Z,14.73
2019-03-22T10:12:16.508Z,18.17
2019-03-22T10:14:46.581Z,16.10
2019-03-22T10:17:16.619Z,16.67
2019-03-22T10:19:46.495Z,16.83
2019-03-22T10:22:16.454Z,16.33
2019-03-22T10:24:46.402Z,18.20
2019-03-22T10:27:16.362Z,14.43
2019-03-22T10:29:46.222Z,19.43
2019-03-22T10:32:16.156Z,18.32
2019-03-22T10:34:46.130Z,14.17
2019-03-22T10:37:16.045Z,23.17
2019-03-22T10:39:45.997Z,16.30
2019-03-22T10:42:15.843Z,13.73
2019-03-22T10:44:45.804Z,13.58
2019-03-22T10:47:18.063Z,17.57
2019-03-22T10:49:47.312Z,15.40
2019-03-22T10:52:17.240Z,14.43
2019-03-22T10:54:47.239Z,14.33
2019-03-22T10:57:17.158Z,15.43
2019-03-22T10:59:47.111Z,10.87
2019-03-22T11:02:17.090Z,13.10
2019-03-22T11:04:47.033Z,12.03
2019-03-22T11:07:17.003Z,11.43
2019-03-22T11:09:46.915Z,13.73
2019-03-22T11:12:16.795Z,18.30
2019-03-22T11:14:46.686Z,13.60
2019-03-22T11:17:16.562Z,11.80
2019-03-22T11:19:46.463Z,21.93
2019-03-22T11:22:16.424Z,16.97
2019-03-22T11:24:46.354Z,10.20
2019-03-22T11:27:16.227Z,14.77
2019-03-22T11:29:46.180Z,15.97
2019-03-22T11:32:16.119Z,15.03
2019-03-22T11:34:45.993Z,12.65
2019-03-22T11:37:15.910Z,15.70
2019-03-22T11:39:45.875Z,24.33
2019-03-22T11:42:15.783Z,10.00
2019-03-22T11:44:45.761Z,12.28
2019-03-22T11:47:15.735Z,16.87
2019-03-22T11:49:45.602Z,14.10
2019-03-22T11:52:15.531Z,13.70
2019-03-22T11:54:45.444Z,11.80
2019-03-22T11:57:15.384Z,13.98
2019-03-22T11:59:45.358Z,13.98
2019-03-22T12:02:22.082Z,17.13
2019-03-22T12:04:46.878Z,13.53
2019-03-22T12:07:16.834Z,12.43
2019-03-22T12:09:46.765Z,17.40
2019-03-22T12:12:16.692Z,16.23
2019-03-22T12:14:46.649Z,15.08
2019-03-22T12:17:16.563Z,14.15
2019-03-22T12:19:46.536Z,14.15
2019-03-22T12:22:16.447Z,15.05
2019-03-22T12:24:46.418Z,14.10
2019-03-22T12:27:16.382Z,12.03
2019-03-22T12:29:46.361Z,16.67
2019-03-22T12:32:16.234Z,14.25
2019-03-22T12:34:46.281Z,15.13
2019-03-22T12:37:16.209Z,14.75
2019-03-22T12:39:46.139Z,14.80
2019-03-22T12:42:16.083Z,14.98
2019-03-22T12:44:46.025Z,12.63
2019-03-22T12:47:16.064Z,13.18
2019-03-22T12:49:45.956Z,14.83
2019-03-22T12:52:15.866Z,17.27
2019-03-22T12:54:45.822Z,18.32
2019-03-22T12:57:15.679Z,15.25
2019-03-22T12:59:45.636Z,17.05
2019-03-22T13:02:15.623Z,15.63
2019-03-22T13:04:45.750Z,13.62
2019-03-22T13:07:15.617Z,14.68
2019-03-22T13:09:45.635Z,14.20
2019-03-22T13:12:15.592Z,33.55
2019-03-22T13:14:45.516Z,12.90
2019-03-22T13:17:15.526Z,11.43
2019-03-22T13:19:45.418Z,14.63
2019-03-22T13:22:15.350Z,12.13
2019-03-22T13:24:45.268Z,18.75
2019-03-22T13:27:15.270Z,13.50
2019-03-22T13:29:45.219Z,12.00
2019-03-22T13:32:15.157Z,14.35
2019-03-22T13:34:45.097Z,14.03
2019-03-22T13:37:15.019Z,12.80
2019-03-22T13:39:44.960Z,17.37
2019-03-22T13:42:14.947Z,11.78
2019-03-22T13:44:44.933Z,11.63
2019-03-22T13:47:14.855Z,16.48
2019-03-22T13:49:44.877Z,12.07
2019-03-22T13:52:14.787Z,13.68
2019-03-22T13:54:44.696Z,12.90
2019-03-22T13:57:14.656Z,14.70
2019-03-22T13:59:44.601Z,15.55
2019-03-22T14:02:14.572Z,16.37
2019-03-22T14:04:44.569Z,14.25
2019-03-22T14:07:14.531Z,14.00
2019-03-22T14:09:44.438Z,16.10
2019-03-22T14:12:14.307Z,14.35
2019-03-22T14:14:44.243Z,14.85
2019-03-22T14:17:14.171Z,12.07
2019-03-22T14:19:44.135Z,12.33
2019-03-22T14:22:14.062Z,14.98
2019-03-22T14:24:43.984Z,17.48
2019-03-22T14:27:13.920Z,14.75
2019-03-22T14:29:43.876Z,14.73
2019-03-22T14:32:13.787Z,12.95
2019-03-22T14:34:43.707Z,16.90
2019-03-22T14:37:13.647Z,17.45
2019-03-22T14:39:43.493Z,10.23
2019-03-22T14:42:13.419Z,14.63
2019-03-22T14:44:43.351Z,17.35
2019-03-22T14:47:13.297Z,16.05
2019-03-22T14:49:43.210Z,21.52
2019-03-22T14:52:13.158Z,14.10
2019-03-22T14:54:43.079Z,15.13
2019-03-22T14:57:13.016Z,16.90
2019-03-22T14:59:42.962Z,16.07
2019-03-22T15:02:12.988Z,16.32
2019-03-22T15:04:42.946Z,17.85
2019-03-22T15:07:19.576Z,18.98
2019-03-22T15:09:46.226Z,13.45
2019-03-22T15:12:16.024Z,18.25
2019-03-22T15:15:03.801Z,13.68
2019-03-22T15:18:01.545Z,14.07
2019-03-22T15:20:49.096Z,19.17
2019-03-22T15:24:02.938Z,13.43
2019-03-22T15:26:55.115Z,20.32
2019-03-22T15:29:51.105Z,17.45
2019-03-22T15:32:40.031Z,17.87
2019-03-22T15:35:38.067Z,16.82
2019-03-22T15:38:27.055Z,19.80
2019-03-22T15:40:57.042Z,15.35
2019-03-22T15:43:27.027Z,22.15
2019-03-22T15:45:57.684Z,20.88
2019-03-22T15:48:27.634Z,21.50
2019-03-22T15:50:58.055Z,26.87
2019-03-22T15:53:30.108Z,19.12
2019-03-22T15:56:00.040Z,17.65
2019-03-22T15:58:30.067Z,23.52
2019-03-22T16:01:00.020Z,16.05
2019-03-22T16:03:32.377Z,15.25
2019-03-22T16:06:02.506Z,18.42
2019-03-22T16:08:32.973Z,18.42
2019-03-22T16:11:02.908Z,16.35
2019-03-22T16:13:32.819Z,17.70
2019-03-22T16:16:02.762Z,14.98
2019-03-22T16:18:32.690Z,17.90
2019-03-22T16:21:02.664Z,15.28
2019-03-22T16:23:32.599Z,19.65
2019-03-22T16:26:02.500Z,17.48
2019-03-22T16:28:32.463Z,26.60
2019-03-22T16:31:02.410Z,22.40
2019-03-22T16:33:34.023Z,22.37
2019-03-22T16:36:04.116Z,27.75
2019-03-22T16:38:34.178Z,23.47
2019-03-22T16:41:04.467Z,22.27
2019-03-22T16:43:34.378Z,24.18
2019-03-22T16:46:04.568Z,22.40
2019-03-22T16:48:34.476Z,17.53
2019-03-22T16:51:04.571Z,21.07
2019-03-22T16:53:34.511Z,30.80
2019-03-22T16:56:04.566Z,46.13
2019-03-22T16:58:34.425Z,26.53
2019-03-22T17:01:05.260Z,22.30
2019-03-22T17:03:35.257Z,25.27
2019-03-22T17:06:05.355Z,33.00
2019-03-22T17:08:35.263Z,35.85
2019-03-22T17:11:05.178Z,19.57
2019-03-22T17:13:35.111Z,17.80
2019-03-22T17:16:04.970Z,21.80
2019-03-22T17:18:34.915Z,17.62
2019-03-22T17:21:04.846Z,17.87
2019-03-22T17:23:34.697Z,16.93
2019-03-22T17:26:04.628Z,17.12
2019-03-22T17:28:35.014Z,20.37
2019-03-22T17:31:04.928Z,24.12
2019-03-22T17:33:34.855Z,25.97
2019-03-22T17:36:04.739Z,19.53
2019-03-22T17:38:34.607Z,26.53
2019-03-22T17:41:04.567Z,27.47
2019-03-22T17:43:34.485Z,27.73
2019-03-22T17:46:04.443Z,28.13
2019-03-22T17:48:34.285Z,36.03
2019-03-22T17:51:04.239Z,44.30
2019-03-22T17:53:34.171Z,43.57
2019-03-22T17:56:04.092Z,91.03
2019-03-22T17:58:34.032Z,49.17
2019-03-22T18:01:03.966Z,43.37
2019-03-22T18:03:33.916Z,24.30
2019-03-22T18:06:03.876Z,28.67
2019-03-22T18:08:33.830Z,36.10
2019-03-22T18:11:03.754Z,27.47
2019-03-22T18:13:33.697Z,29.43
2019-03-22T18:16:03.621Z,27.70
2019-03-22T18:18:33.550Z,70.00
2019-03-22T18:21:03.427Z,47.40
2019-03-22T18:23:36.018Z,67.57
2019-03-22T18:26:04.931Z,41.50
2019-03-22T18:28:34.850Z,32.70
2019-03-22T18:31:04.819Z,38.40
2019-03-22T18:33:34.763Z,26.83
2019-03-22T18:36:04.740Z,35.27
2019-03-22T18:38:34.650Z,29.33
2019-03-22T18:41:04.606Z,29.00
2019-03-22T18:43:34.527Z,33.13
2019-03-22T18:46:04.426Z,26.97
2019-03-22T18:48:34.325Z,34.17
2019-03-22T18:51:04.232Z,29.35
2019-03-22T18:53:34.495Z,36.17
2019-03-22T18:56:04.943Z,30.13
2019-03-22T18:58:34.928Z,29.33
2019-03-22T19:01:04.851Z,31.53
2019-03-22T19:03:34.906Z,33.03
2019-03-22T19:06:04.835Z,34.87
2019-03-22T19:08:34.752Z,30.47
2019-03-22T19:11:04.829Z,37.00
2019-03-22T19:13:34.742Z,36.53
2019-03-22T19:16:04.698Z,36.30
2019-03-22T19:18:34.630Z,41.37
2019-03-22T19:21:04.566Z,35.70
2019-03-22T19:23:34.496Z,39.27
2019-03-22T19:26:04.482Z,31.43
2019-03-22T19:28:34.394Z,35.00
2019-03-22T19:31:04.327Z,34.57
2019-03-22T19:33:34.270Z,25.43
2019-03-22T19:36:04.207Z,28.27
2019-03-22T19:38:34.156Z,36.57
2019-03-22T19:41:05.363Z,31.43
2019-03-22T19:43:35.326Z,28.90
2019-03-22T19:46:05.719Z,30.53
2019-03-22T19:48:35.695Z,31.87
2019-03-22T19:51:05.615Z,30.20
2019-03-22T19:53:35.574Z,34.27
2019-03-22T19:56:05.819Z,33.70
2019-03-22T19:58:35.750Z,30.90
2019-03-22T20:01:05.802Z,41.60
2019-03-22T20:03:35.786Z,29.33
2019-03-22T20:06:05.736Z,30.10
2019-03-22T20:08:35.687Z,27.57
2019-03-22T20:11:05.911Z,36.63
2019-03-22T20:13:35.897Z,32.47
2019-03-22T20:16:05.764Z,29.50
2019-03-22T20:18:35.693Z,28.70
2019-03-22T20:21:05.598Z,31.80
2019-03-22T20:23:35.548Z,30.10
2019-03-22T20:26:05.488Z,27.07
2019-03-22T20:28:35.425Z,32.60
2019-03-22T20:31:05.398Z,30.03
2019-03-22T20:33:35.261Z,29.20
2019-03-22T20:36:05.211Z,29.30
2019-03-22T20:38:35.179Z,29.37
2019-03-22T20:41:05.089Z,36.00
2019-03-22T20:43:35.002Z,36.30
2019-03-22T20:46:04.932Z,32.43
2019-03-22T20:48:34.846Z,29.00
2019-03-22T20:51:04.787Z,28.90
2019-03-22T20:53:34.781Z,31.93
2019-03-22T20:56:04.814Z,37.17
2019-03-22T20:58:34.729Z,37.70
2019-03-22T21:01:04.751Z,36.47
2019-03-22T21:03:34.658Z,37.70
2019-03-22T21:06:04.726Z,30.07
2019-03-22T21:08:34.651Z,30.60
2019-03-22T21:11:04.559Z,34.23
2019-03-22T21:13:34.502Z,28.17
2019-03-22T21:16:04.429Z,32.70
2019-03-22T21:18:34.385Z,33.90
2019-03-22T21:21:04.294Z,36.60
2019-03-22T21:23:36.555Z,30.53
2019-03-22T21:26:05.899Z,38.37
2019-03-22T21:28:35.819Z,34.33
2019-03-22T21:31:05.802Z,30.80
2019-03-22T21:33:35.739Z,33.97
2019-03-22T21:36:05.699Z,33.53
2019-03-22T21:38:35.623Z,32.73
2019-03-22T21:41:05.559Z,29.17
2019-03-22T21:43:35.493Z,33.13
2019-03-22T21:46:05.402Z,34.30
2019-03-22T21:48:35.346Z,29.13
2019-03-22T21:51:05.287Z,34.73
2019-03-22T21:53:35.258Z,38.23
2019-03-22T21:56:05.176Z,32.10
2019-03-22T21:58:35.155Z,31.57
2019-03-22T22:01:05.113Z,34.20
2019-03-22T22:03:35.405Z,26.60
2019-03-22T22:06:05.851Z,34.67
2019-03-22T22:08:35.800Z,34.10
2019-03-22T22:11:05.753Z,31.53
2019-03-22T22:13:35.655Z,31.40
2019-03-22T22:16:05.611Z,32.87
2019-03-22T22:18:35.541Z,28.30
2019-03-22T22:21:05.486Z,37.10
2019-03-22T22:23:35.407Z,35.83
2019-03-22T22:26:05.326Z,35.00
2019-03-22T22:28:35.284Z,36.20
2019-03-22T22:31:05.160Z,33.17
2019-03-22T22:33:35.510Z,36.50
2019-03-22T22:36:05.430Z,31.93
2019-03-22T22:38:35.719Z,33.60
2019-03-22T22:41:05.564Z,34.43
2019-03-22T22:43:35.502Z,31.20
2019-03-22T22:46:05.426Z,29.93
2019-03-22T22:48:35.359Z,29.43
2019-03-22T22:51:05.398Z,35.47
2019-03-22T22:53:35.326Z,28.47
2019-03-22T22:56:05.318Z,34.03
2019-03-22T22:58:35.256Z,35.20
2019-03-22T23:01:05.315Z,29.13
2019-03-22T23:03:35.261Z,31.97
2019-03-22T23:06:09.257Z,29.83
2019-03-22T23:08:36.831Z,31.47
2019-03-22T23:11:06.896Z,33.20
2019-03-22T23:13:36.807Z,32.90
2019-03-22T23:16:06.800Z,34.37
2019-03-22T23:18:36.679Z,34.60
2019-03-22T23:21:08.950Z,33.00
2019-03-22T23:23:38.864Z,33.30
2019-03-22T23:26:08.779Z,31.90
2019-03-22T23:28:38.707Z,33.73
2019-03-22T23:31:08.619Z,35.40
2019-03-22T23:33:38.575Z,26.63
2019-03-22T23:36:08.512Z,32.63
2019-03-22T23:38:38.469Z,31.10
2019-03-22T23:41:08.372Z,32.80
2019-03-22T23:43:38.308Z,30.83
2019-03-22T23:46:08.242Z,31.87
2019-03-22T23:48:38.179Z,30.97
2019-03-22T23:51:08.099Z,28.73
2019-03-22T23:53:38.015Z,30.97
2019-03-22T23:56:07.983Z,29.60
2019-03-22T23:58:37.887Z,30.83
